CEB5039 RJGG-RPLL
Flight info
| Callsign | CEB5039 |
|---|---|
| Flight time | N/A |
| Altitude | 38000 |
| Route | KEC Z262 ALUYO Z26 TONAR/N0476F400 Y525 ONC KXC Y62 MJC B462 LAO M646 SANRO/N0470F410 W4 NABAL |
| Aircraft | A339/H-SADE1E2E3GHIJ3J5M1P2RWXY/LB2D1 |
Departure
| Time | N/A |
|---|---|
| Airport | Chubu Centrair International Airport (RJGG) |
Arrival
| Time | 2026-04-30 12:38 |
|---|---|
| Airport | Ninoy Aquino International Airport (RPLL) |
| Time | Latitude | Longitude | Altitude | Speed | Heading |
|---|---|---|---|---|---|
| 2026-04-30 10:50 | 25.12650 | 125.60228 | 37770 ft | 474 kts | 220° |
| 2026-04-30 10:51 | 25.07511 | 125.55670 | 37769 ft | 474 kts | 220° |
| 2026-04-30 10:51 | 25.02390 | 125.51131 | 37769 ft | 474 kts | 220° |
| 2026-04-30 10:52 | 24.96367 | 125.45797 | 37769 ft | 474 kts | 220° |
| 2026-04-30 10:52 | 24.91226 | 125.41247 | 37769 ft | 474 kts | 220° |
| 2026-04-30 10:53 | 24.86971 | 125.37485 | 37769 ft | 474 kts | 220° |
| 2026-04-30 10:53 | 24.81840 | 125.32952 | 37769 ft | 473 kts | 219° |
| 2026-04-30 10:54 | 24.76615 | 125.28482 | 37769 ft | 474 kts | 216° |
| 2026-04-30 10:54 | 24.70327 | 125.23681 | 37769 ft | 474 kts | 215° |
| 2026-04-30 10:55 | 24.65811 | 125.20251 | 37769 ft | 474 kts | 215° |
| 2026-04-30 10:55 | 24.60368 | 125.16118 | 37769 ft | 474 kts | 215° |
| 2026-04-30 10:56 | 24.54953 | 125.12007 | 37770 ft | 473 kts | 215° |
| 2026-04-30 10:56 | 24.49560 | 125.07918 | 37769 ft | 474 kts | 215° |
| 2026-04-30 10:57 | 24.44137 | 125.03809 | 37770 ft | 473 kts | 215° |
| 2026-04-30 10:57 | 24.38714 | 124.99706 | 37770 ft | 473 kts | 215° |
| 2026-04-30 10:58 | 24.33310 | 124.95620 | 37770 ft | 473 kts | 215° |
| 2026-04-30 10:58 | 24.27889 | 124.91526 | 37770 ft | 473 kts | 215° |
| 2026-04-30 10:59 | 24.22457 | 124.87429 | 37770 ft | 473 kts | 215° |
| 2026-04-30 10:59 | 24.17065 | 124.83369 | 37770 ft | 473 kts | 215° |
| 2026-04-30 11:00 | 24.11628 | 124.79276 | 37770 ft | 473 kts | 215° |
| 2026-04-30 11:00 | 24.06204 | 124.75195 | 37770 ft | 472 kts | 215° |
| 2026-04-30 11:01 | 24.00802 | 124.71137 | 37770 ft | 473 kts | 215° |
| 2026-04-30 11:01 | 23.95374 | 124.67063 | 37770 ft | 473 kts | 215° |
| 2026-04-30 11:02 | 23.89958 | 124.63002 | 37770 ft | 473 kts | 215° |
| 2026-04-30 11:02 | 23.83639 | 124.58270 | 37770 ft | 473 kts | 215° |
| 2026-04-30 11:03 | 23.79090 | 124.54868 | 37770 ft | 473 kts | 215° |
| 2026-04-30 11:04 | 23.70970 | 124.48800 | 37770 ft | 473 kts | 215° |
| 2026-04-30 11:04 | 23.65539 | 124.44748 | 37770 ft | 473 kts | 215° |
| 2026-04-30 11:05 | 23.59218 | 124.40035 | 37770 ft | 472 kts | 215° |
| 2026-04-30 11:05 | 23.54692 | 124.36665 | 37770 ft | 472 kts | 215° |
| 2026-04-30 11:06 | 23.49268 | 124.32630 | 37770 ft | 472 kts | 215° |
| 2026-04-30 11:06 | 23.43870 | 124.28616 | 37771 ft | 472 kts | 215° |
| 2026-04-30 11:07 | 23.38419 | 124.24573 | 37769 ft | 472 kts | 215° |
| 2026-04-30 11:07 | 23.33004 | 124.20561 | 37769 ft | 472 kts | 215° |
| 2026-04-30 11:08 | 23.27576 | 124.16545 | 37769 ft | 472 kts | 215° |
| 2026-04-30 11:08 | 23.22148 | 124.12531 | 37769 ft | 472 kts | 215° |
| 2026-04-30 11:09 | 23.16708 | 124.08512 | 37769 ft | 472 kts | 215° |
| 2026-04-30 11:09 | 23.11288 | 124.04511 | 37769 ft | 472 kts | 215° |
| 2026-04-30 11:10 | 23.05868 | 124.00512 | 37768 ft | 471 kts | 215° |
| 2026-04-30 11:10 | 23.00406 | 123.96488 | 37769 ft | 471 kts | 215° |
| 2026-04-30 11:11 | 22.94943 | 123.92548 | 37768 ft | 472 kts | 214° |
| 2026-04-30 11:11 | 22.88575 | 123.87994 | 37768 ft | 471 kts | 214° |
| 2026-04-30 11:12 | 22.84014 | 123.84727 | 37768 ft | 472 kts | 214° |
| 2026-04-30 11:12 | 22.78546 | 123.80812 | 37768 ft | 472 kts | 214° |
| 2026-04-30 11:13 | 22.73060 | 123.76891 | 37768 ft | 472 kts | 214° |
| 2026-04-30 11:13 | 22.67570 | 123.72971 | 37768 ft | 471 kts | 214° |
| 2026-04-30 11:14 | 22.62128 | 123.69085 | 37768 ft | 471 kts | 214° |
| 2026-04-30 11:14 | 22.56625 | 123.65159 | 37768 ft | 471 kts | 214° |
| 2026-04-30 11:15 | 22.51170 | 123.61272 | 37768 ft | 471 kts | 214° |
| 2026-04-30 11:15 | 22.45696 | 123.57375 | 37768 ft | 471 kts | 214° |
| 2026-04-30 11:16 | 22.40223 | 123.53483 | 37768 ft | 471 kts | 214° |
| 2026-04-30 11:16 | 22.34767 | 123.49607 | 37768 ft | 471 kts | 214° |
| 2026-04-30 11:17 | 22.29259 | 123.45698 | 37768 ft | 471 kts | 214° |
| 2026-04-30 11:17 | 22.23788 | 123.41818 | 37768 ft | 471 kts | 214° |
| 2026-04-30 11:18 | 22.18326 | 123.37949 | 37768 ft | 471 kts | 214° |
| 2026-04-30 11:18 | 22.10113 | 123.32138 | 37769 ft | 471 kts | 214° |
| 2026-04-30 11:19 | 22.04625 | 123.28259 | 37769 ft | 471 kts | 214° |
| 2026-04-30 11:19 | 21.99153 | 123.24396 | 37769 ft | 471 kts | 214° |
| 2026-04-30 11:20 | 21.93676 | 123.20532 | 37769 ft | 471 kts | 214° |
| 2026-04-30 11:20 | 21.88201 | 123.16674 | 37769 ft | 470 kts | 214° |
| 2026-04-30 11:21 | 21.82733 | 123.12824 | 37769 ft | 470 kts | 214° |
| 2026-04-30 11:21 | 21.77264 | 123.08976 | 37769 ft | 470 kts | 214° |
| 2026-04-30 11:22 | 21.71787 | 123.05127 | 37769 ft | 470 kts | 214° |
| 2026-04-30 11:22 | 21.65371 | 123.00623 | 37769 ft | 470 kts | 214° |
| 2026-04-30 11:23 | 21.60833 | 122.97440 | 37769 ft | 470 kts | 214° |
| 2026-04-30 11:24 | 21.52582 | 122.91658 | 37769 ft | 470 kts | 214° |
| 2026-04-30 11:24 | 21.47107 | 122.87826 | 37769 ft | 470 kts | 214° |
| 2026-04-30 11:25 | 21.38917 | 122.82100 | 37769 ft | 470 kts | 214° |
| 2026-04-30 11:26 | 21.27937 | 122.74436 | 37769 ft | 470 kts | 214° |
| 2026-04-30 11:26 | 21.22458 | 122.70617 | 37769 ft | 470 kts | 214° |
| 2026-04-30 11:27 | 21.16980 | 122.66801 | 37769 ft | 470 kts | 214° |
| 2026-04-30 11:27 | 21.11526 | 122.63006 | 37769 ft | 470 kts | 214° |
| 2026-04-30 11:28 | 21.03307 | 122.57292 | 37769 ft | 470 kts | 214° |
| 2026-04-30 11:29 | 20.97845 | 122.53461 | 37769 ft | 469 kts | 215° |
| 2026-04-30 11:29 | 20.89770 | 122.47536 | 37768 ft | 469 kts | 216° |
| 2026-04-30 11:30 | 20.81695 | 122.41619 | 37768 ft | 469 kts | 215° |
| 2026-04-30 11:31 | 20.76288 | 122.37675 | 37768 ft | 469 kts | 215° |
| 2026-04-30 11:31 | 20.70892 | 122.33742 | 37768 ft | 469 kts | 215° |
| 2026-04-30 11:32 | 20.65502 | 122.29816 | 37768 ft | 469 kts | 215° |
| 2026-04-30 11:32 | 20.60106 | 122.25889 | 37768 ft | 469 kts | 215° |
| 2026-04-30 11:33 | 20.52037 | 122.20023 | 37768 ft | 469 kts | 215° |
| 2026-04-30 11:33 | 20.46627 | 122.16093 | 37768 ft | 469 kts | 215° |
| 2026-04-30 11:34 | 20.41258 | 122.12197 | 37768 ft | 469 kts | 215° |
| 2026-04-30 11:34 | 20.35870 | 122.08290 | 37768 ft | 469 kts | 215° |
| 2026-04-30 11:35 | 20.30444 | 122.04359 | 37768 ft | 469 kts | 215° |
| 2026-04-30 11:35 | 20.25075 | 122.00472 | 37768 ft | 469 kts | 215° |
| 2026-04-30 11:36 | 20.19673 | 121.96565 | 37768 ft | 469 kts | 215° |
| 2026-04-30 11:36 | 20.14261 | 121.92655 | 37768 ft | 470 kts | 215° |
| 2026-04-30 11:37 | 20.07876 | 121.88046 | 38147 ft | 477 kts | 215° |
| 2026-04-30 11:37 | 20.06058 | 121.86735 | 38343 ft | 477 kts | 215° |
| 2026-04-30 11:37 | 20.03284 | 121.84735 | 38649 ft | 477 kts | 215° |
| 2026-04-30 11:38 | 20.00574 | 121.82781 | 38929 ft | 476 kts | 215° |
| 2026-04-30 11:38 | 19.97817 | 121.80794 | 39189 ft | 476 kts | 215° |
| 2026-04-30 11:38 | 19.95082 | 121.78825 | 39438 ft | 476 kts | 215° |
| 2026-04-30 11:38 | 19.92340 | 121.76852 | 39679 ft | 477 kts | 215° |
| 2026-04-30 11:39 | 19.86824 | 121.72885 | 39765 ft | 477 kts | 215° |
| 2026-04-30 11:39 | 19.81362 | 121.68959 | 39768 ft | 477 kts | 215° |
| 2026-04-30 11:40 | 19.75855 | 121.65003 | 39768 ft | 477 kts | 215° |
| 2026-04-30 11:40 | 19.70359 | 121.61058 | 39768 ft | 477 kts | 215° |
| 2026-04-30 11:41 | 19.64843 | 121.57104 | 39768 ft | 477 kts | 215° |
| 2026-04-30 11:41 | 19.59363 | 121.53178 | 39768 ft | 477 kts | 215° |
| 2026-04-30 11:42 | 19.53869 | 121.49246 | 39768 ft | 477 kts | 215° |
| 2026-04-30 11:42 | 19.48346 | 121.45295 | 39768 ft | 477 kts | 215° |
| 2026-04-30 11:43 | 19.42839 | 121.41359 | 39768 ft | 477 kts | 215° |
| 2026-04-30 11:43 | 19.37349 | 121.37439 | 39768 ft | 477 kts | 215° |
| 2026-04-30 11:44 | 19.31863 | 121.33526 | 39768 ft | 477 kts | 214° |
| 2026-04-30 11:44 | 19.26354 | 121.29598 | 39768 ft | 477 kts | 214° |
| 2026-04-30 11:45 | 19.20843 | 121.25673 | 39768 ft | 477 kts | 214° |
| 2026-04-30 11:45 | 19.15349 | 121.21763 | 39768 ft | 477 kts | 214° |
| 2026-04-30 11:46 | 19.09818 | 121.17829 | 39768 ft | 477 kts | 214° |
| 2026-04-30 11:46 | 19.04335 | 121.13934 | 39768 ft | 477 kts | 214° |
| 2026-04-30 11:47 | 18.98790 | 121.09997 | 39768 ft | 477 kts | 214° |
| 2026-04-30 11:47 | 18.93321 | 121.06116 | 39767 ft | 477 kts | 214° |
| 2026-04-30 11:48 | 18.87810 | 121.02210 | 39767 ft | 477 kts | 214° |
| 2026-04-30 11:48 | 18.82295 | 120.98303 | 39767 ft | 477 kts | 214° |
| 2026-04-30 11:49 | 18.76773 | 120.94395 | 39767 ft | 477 kts | 214° |
| 2026-04-30 11:49 | 18.71268 | 120.90501 | 39770 ft | 477 kts | 214° |
| 2026-04-30 11:50 | 18.65757 | 120.86606 | 39781 ft | 477 kts | 214° |
| 2026-04-30 11:50 | 18.60251 | 120.82718 | 39793 ft | 477 kts | 214° |
| 2026-04-30 11:51 | 18.54736 | 120.78829 | 39806 ft | 477 kts | 214° |
| 2026-04-30 11:51 | 18.49216 | 120.74940 | 39819 ft | 477 kts | 214° |
| 2026-04-30 11:52 | 18.43708 | 120.71059 | 39821 ft | 477 kts | 214° |
| 2026-04-30 11:52 | 18.38189 | 120.67174 | 39814 ft | 477 kts | 214° |
| 2026-04-30 11:53 | 18.32679 | 120.63299 | 39806 ft | 477 kts | 214° |
| 2026-04-30 11:53 | 18.27158 | 120.59419 | 39797 ft | 477 kts | 214° |
| 2026-04-30 11:54 | 18.21389 | 120.55939 | 39787 ft | 478 kts | 206° |
| 2026-04-30 11:54 | 18.15189 | 120.53382 | 39779 ft | 479 kts | 198° |
| 2026-04-30 11:55 | 18.08721 | 120.51819 | 39774 ft | 479 kts | 189° |
| 2026-04-30 11:55 | 18.02100 | 120.50995 | 39771 ft | 479 kts | 187° |
| 2026-04-30 11:56 | 17.95412 | 120.50221 | 39771 ft | 479 kts | 187° |
| 2026-04-30 11:56 | 17.88789 | 120.49442 | 39773 ft | 479 kts | 187° |
| 2026-04-30 11:57 | 17.82166 | 120.48659 | 39777 ft | 479 kts | 187° |
| 2026-04-30 11:57 | 17.75491 | 120.47870 | 39781 ft | 479 kts | 187° |
| 2026-04-30 11:58 | 17.68876 | 120.47086 | 39786 ft | 480 kts | 187° |
| 2026-04-30 11:58 | 17.62267 | 120.46309 | 39791 ft | 479 kts | 187° |
| 2026-04-30 11:59 | 17.55606 | 120.45525 | 39796 ft | 479 kts | 187° |
| 2026-04-30 11:59 | 17.48968 | 120.44742 | 39801 ft | 479 kts | 187° |
| 2026-04-30 12:00 | 17.22664 | 120.41658 | 39785 ft | 479 kts | 187° |
| 2026-04-30 12:00 | 17.16012 | 120.40865 | 39784 ft | 479 kts | 187° |
| 2026-04-30 12:01 | 17.09367 | 120.40080 | 39737 ft | 480 kts | 187° |
| 2026-04-30 12:01 | 17.06058 | 120.39690 | 39493 ft | 479 kts | 187° |
| 2026-04-30 12:01 | 17.02769 | 120.39304 | 39248 ft | 476 kts | 187° |
| 2026-04-30 12:02 | 16.99484 | 120.38917 | 39000 ft | 473 kts | 187° |
| 2026-04-30 12:02 | 16.96219 | 120.38535 | 38755 ft | 470 kts | 187° |
| 2026-04-30 12:02 | 16.92941 | 120.38150 | 38491 ft | 469 kts | 187° |
| 2026-04-30 12:02 | 16.89701 | 120.37770 | 38183 ft | 469 kts | 187° |
| 2026-04-30 12:03 | 16.86459 | 120.37392 | 37746 ft | 469 kts | 187° |
| 2026-04-30 12:03 | 16.79967 | 120.36633 | 36670 ft | 470 kts | 186° |
| 2026-04-30 12:03 | 16.76702 | 120.36346 | 36064 ft | 471 kts | 184° |
| 2026-04-30 12:04 | 16.73395 | 120.36236 | 35393 ft | 471 kts | 180° |
| 2026-04-30 12:04 | 16.70145 | 120.36312 | 34773 ft | 471 kts | 177° |
| 2026-04-30 12:04 | 16.66854 | 120.36575 | 34139 ft | 470 kts | 174° |
| 2026-04-30 12:04 | 16.63621 | 120.36983 | 33517 ft | 469 kts | 173° |
| 2026-04-30 12:05 | 16.60397 | 120.37414 | 32892 ft | 469 kts | 173° |
| 2026-04-30 12:05 | 16.57159 | 120.37849 | 32244 ft | 469 kts | 173° |
| 2026-04-30 12:05 | 16.53920 | 120.38284 | 31583 ft | 469 kts | 173° |
| 2026-04-30 12:05 | 16.50650 | 120.38720 | 30905 ft | 470 kts | 173° |
| 2026-04-30 12:06 | 16.47412 | 120.39150 | 30211 ft | 471 kts | 173° |
| 2026-04-30 12:06 | 16.44197 | 120.39577 | 29503 ft | 472 kts | 173° |
| 2026-04-30 12:06 | 16.40896 | 120.40015 | 28758 ft | 473 kts | 173° |
| 2026-04-30 12:06 | 16.37673 | 120.40441 | 28011 ft | 474 kts | 173° |
| 2026-04-30 12:07 | 16.34364 | 120.40878 | 27442 ft | 470 kts | 173° |
| 2026-04-30 12:07 | 16.31142 | 120.41305 | 26897 ft | 467 kts | 173° |
| 2026-04-30 12:07 | 16.27938 | 120.41728 | 26382 ft | 462 kts | 173° |
| 2026-04-30 12:07 | 16.24775 | 120.42145 | 25810 ft | 460 kts | 173° |
| 2026-04-30 12:08 | 16.21580 | 120.42568 | 25269 ft | 456 kts | 173° |
| 2026-04-30 12:08 | 16.18453 | 120.42981 | 24777 ft | 452 kts | 173° |
| 2026-04-30 12:08 | 16.15340 | 120.43391 | 24286 ft | 447 kts | 173° |
| 2026-04-30 12:08 | 16.12251 | 120.43799 | 23799 ft | 443 kts | 173° |
| 2026-04-30 12:09 | 16.09227 | 120.44198 | 23334 ft | 437 kts | 173° |
| 2026-04-30 12:09 | 16.06176 | 120.44599 | 22925 ft | 445 kts | 173° |
| 2026-04-30 12:09 | 16.03113 | 120.45001 | 22657 ft | 451 kts | 173° |
| 2026-04-30 12:09 | 15.99962 | 120.45416 | 22350 ft | 450 kts | 173° |
| 2026-04-30 12:10 | 15.96875 | 120.45822 | 22010 ft | 448 kts | 173° |
| 2026-04-30 12:10 | 15.93747 | 120.46234 | 21666 ft | 446 kts | 173° |
| 2026-04-30 12:10 | 15.90669 | 120.46639 | 21327 ft | 444 kts | 173° |
| 2026-04-30 12:10 | 15.87617 | 120.47041 | 20990 ft | 442 kts | 173° |
| 2026-04-30 12:11 | 15.84578 | 120.47442 | 20655 ft | 440 kts | 173° |
| 2026-04-30 12:11 | 15.81560 | 120.47838 | 20319 ft | 438 kts | 173° |
| 2026-04-30 12:11 | 15.78511 | 120.48238 | 19982 ft | 436 kts | 173° |
| 2026-04-30 12:11 | 15.75510 | 120.48632 | 19649 ft | 434 kts | 173° |
| 2026-04-30 12:12 | 15.72505 | 120.49026 | 19317 ft | 432 kts | 173° |
| 2026-04-30 12:12 | 15.69545 | 120.49416 | 18987 ft | 430 kts | 173° |
| 2026-04-30 12:12 | 15.66561 | 120.49806 | 18654 ft | 426 kts | 173° |
| 2026-04-30 12:12 | 15.63661 | 120.50182 | 18323 ft | 415 kts | 173° |
| 2026-04-30 12:13 | 15.60833 | 120.50548 | 17996 ft | 407 kts | 173° |
| 2026-04-30 12:13 | 15.58066 | 120.50907 | 17670 ft | 399 kts | 173° |
| 2026-04-30 12:13 | 15.55334 | 120.51261 | 17313 ft | 387 kts | 173° |
| 2026-04-30 12:13 | 15.52680 | 120.51608 | 16982 ft | 374 kts | 173° |
| 2026-04-30 12:14 | 15.50160 | 120.51945 | 16673 ft | 363 kts | 171° |
| 2026-04-30 12:14 | 15.47778 | 120.52721 | 16396 ft | 348 kts | 155° |
| 2026-04-30 12:14 | 15.45681 | 120.53827 | 16150 ft | 334 kts | 152° |
| 2026-04-30 12:14 | 15.43662 | 120.54957 | 15925 ft | 327 kts | 152° |
| 2026-04-30 12:15 | 15.41641 | 120.56070 | 15732 ft | 324 kts | 152° |
| 2026-04-30 12:15 | 15.39660 | 120.57133 | 15389 ft | 324 kts | 153° |
| 2026-04-30 12:15 | 15.37628 | 120.58199 | 15023 ft | 324 kts | 153° |
| 2026-04-30 12:15 | 15.35617 | 120.59240 | 14699 ft | 323 kts | 153° |
| 2026-04-30 12:16 | 15.33625 | 120.60263 | 14385 ft | 321 kts | 154° |
| 2026-04-30 12:16 | 15.31619 | 120.61288 | 14036 ft | 319 kts | 154° |
| 2026-04-30 12:16 | 15.29625 | 120.62303 | 13714 ft | 318 kts | 154° |
| 2026-04-30 12:16 | 15.27639 | 120.63313 | 13403 ft | 316 kts | 154° |
| 2026-04-30 12:17 | 15.23682 | 120.65321 | 12750 ft | 314 kts | 154° |
| 2026-04-30 12:17 | 15.21729 | 120.66312 | 12447 ft | 313 kts | 154° |
| 2026-04-30 12:17 | 15.19130 | 120.67631 | 12031 ft | 310 kts | 154° |
| 2026-04-30 12:18 | 15.17826 | 120.68292 | 11802 ft | 311 kts | 154° |
| 2026-04-30 12:18 | 15.15896 | 120.69270 | 11444 ft | 312 kts | 154° |
| 2026-04-30 12:18 | 15.13938 | 120.70263 | 11082 ft | 312 kts | 154° |
| 2026-04-30 12:18 | 15.11989 | 120.71249 | 10724 ft | 312 kts | 154° |
| 2026-04-30 12:19 | 15.10013 | 120.72250 | 10360 ft | 312 kts | 154° |
| 2026-04-30 12:19 | 15.08060 | 120.73241 | 10006 ft | 312 kts | 154° |
| 2026-04-30 12:19 | 15.06138 | 120.74214 | 9852 ft | 305 kts | 154° |
| 2026-04-30 12:19 | 15.04235 | 120.75178 | 9850 ft | 301 kts | 154° |
| 2026-04-30 12:20 | 15.02347 | 120.76135 | 9816 ft | 299 kts | 154° |
| 2026-04-30 12:20 | 15.00480 | 120.77080 | 9528 ft | 298 kts | 154° |
| 2026-04-30 12:20 | 14.98616 | 120.78022 | 9197 ft | 299 kts | 154° |
| 2026-04-30 12:20 | 14.96757 | 120.78962 | 8891 ft | 297 kts | 154° |
| 2026-04-30 12:21 | 14.94887 | 120.79906 | 8591 ft | 297 kts | 154° |
| 2026-04-30 12:21 | 14.93018 | 120.80851 | 8316 ft | 296 kts | 154° |
| 2026-04-30 12:21 | 14.91254 | 120.81889 | 8028 ft | 295 kts | 139° |
| 2026-04-30 12:21 | 14.90024 | 120.83549 | 7853 ft | 289 kts | 111° |
| 2026-04-30 12:22 | 14.89665 | 120.85580 | 7851 ft | 290 kts | 84° |
| 2026-04-30 12:22 | 14.90216 | 120.87556 | 7852 ft | 287 kts | 58° |
| 2026-04-30 12:22 | 14.91555 | 120.89058 | 7853 ft | 284 kts | 31° |
| 2026-04-30 12:22 | 14.93363 | 120.89764 | 7854 ft | 282 kts | 5° |
| 2026-04-30 12:23 | 14.95317 | 120.89546 | 7853 ft | 280 kts | 339° |
| 2026-04-30 12:23 | 14.96940 | 120.88442 | 7853 ft | 281 kts | 312° |
| 2026-04-30 12:23 | 14.97892 | 120.86719 | 7854 ft | 283 kts | 286° |
| 2026-04-30 12:23 | 14.97990 | 120.84688 | 7852 ft | 285 kts | 259° |
| 2026-04-30 12:24 | 14.97200 | 120.82835 | 7852 ft | 288 kts | 233° |
| 2026-04-30 12:24 | 14.95662 | 120.81503 | 7851 ft | 291 kts | 207° |
| 2026-04-30 12:24 | 14.93695 | 120.80908 | 7859 ft | 293 kts | 191° |
| 2026-04-30 12:24 | 14.91685 | 120.80608 | 7855 ft | 293 kts | 188° |
| 2026-04-30 12:25 | 14.89653 | 120.80357 | 7851 ft | 292 kts | 187° |
| 2026-04-30 12:25 | 14.87634 | 120.80115 | 7684 ft | 289 kts | 187° |
| 2026-04-30 12:25 | 14.85624 | 120.79876 | 7350 ft | 290 kts | 187° |
| 2026-04-30 12:25 | 14.83604 | 120.79636 | 6940 ft | 294 kts | 187° |
| 2026-04-30 12:26 | 14.81586 | 120.79396 | 6505 ft | 294 kts | 187° |
| 2026-04-30 12:26 | 14.79544 | 120.79152 | 6094 ft | 295 kts | 187° |
| 2026-04-30 12:26 | 14.77482 | 120.78906 | 5653 ft | 298 kts | 187° |
| 2026-04-30 12:26 | 14.75445 | 120.78663 | 5201 ft | 292 kts | 187° |
| 2026-04-30 12:27 | 14.73427 | 120.78423 | 4775 ft | 285 kts | 187° |
| 2026-04-30 12:27 | 14.71458 | 120.78188 | 4389 ft | 288 kts | 187° |
| 2026-04-30 12:27 | 14.69460 | 120.77949 | 3948 ft | 291 kts | 187° |
| 2026-04-30 12:27 | 14.67437 | 120.77708 | 3515 ft | 287 kts | 187° |
| 2026-04-30 12:28 | 14.65479 | 120.77475 | 3097 ft | 284 kts | 187° |
| 2026-04-30 12:28 | 14.63521 | 120.77242 | 2676 ft | 282 kts | 187° |
| 2026-04-30 12:28 | 14.61577 | 120.77011 | 2383 ft | 274 kts | 187° |
| 2026-04-30 12:28 | 14.59705 | 120.76788 | 2362 ft | 272 kts | 187° |
| 2026-04-30 12:29 | 14.57799 | 120.76562 | 2359 ft | 273 kts | 187° |
| 2026-04-30 12:29 | 14.55897 | 120.76337 | 2353 ft | 272 kts | 187° |
| 2026-04-30 12:29 | 14.54012 | 120.76112 | 2350 ft | 272 kts | 187° |
| 2026-04-30 12:29 | 14.52118 | 120.75887 | 2349 ft | 272 kts | 187° |
| 2026-04-30 12:30 | 14.50214 | 120.75661 | 2355 ft | 272 kts | 187° |
| 2026-04-30 12:30 | 14.48335 | 120.75436 | 2362 ft | 273 kts | 187° |
| 2026-04-30 12:30 | 14.46431 | 120.75209 | 2366 ft | 273 kts | 187° |
| 2026-04-30 12:30 | 14.44540 | 120.74983 | 2369 ft | 272 kts | 187° |
| 2026-04-30 12:31 | 14.43810 | 120.74893 | 2545 ft | 275 kts | 187° |
| 2026-04-30 12:31 | 14.43080 | 120.74799 | 2629 ft | 280 kts | 187° |
| 2026-04-30 12:31 | 14.42687 | 120.74746 | 2600 ft | 282 kts | 185° |
| 2026-04-30 12:31 | 14.40121 | 120.74352 | 2973 ft | 275 kts | 185° |
| 2026-04-30 12:32 | 14.38831 | 120.74338 | 2977 ft | 272 kts | 168° |
| 2026-04-30 12:32 | 14.37128 | 120.75056 | 2983 ft | 265 kts | 140° |
| 2026-04-30 12:32 | 14.36003 | 120.76467 | 2980 ft | 249 kts | 111° |
| 2026-04-30 12:32 | 14.35745 | 120.78144 | 2975 ft | 232 kts | 80° |
| 2026-04-30 12:33 | 14.36366 | 120.79609 | 2986 ft | 219 kts | 50° |
| 2026-04-30 12:33 | 14.37444 | 120.80711 | 2995 ft | 215 kts | 42° |
| 2026-04-30 12:33 | 14.38580 | 120.81722 | 3004 ft | 216 kts | 41° |
| 2026-04-30 12:33 | 14.39717 | 120.82736 | 3007 ft | 216 kts | 44° |
| 2026-04-30 12:34 | 14.40700 | 120.83879 | 2997 ft | 207 kts | 54° |
| 2026-04-30 12:34 | 14.41484 | 120.85082 | 2987 ft | 196 kts | 58° |
| 2026-04-30 12:34 | 14.42160 | 120.86254 | 2938 ft | 187 kts | 60° |
| 2026-04-30 12:34 | 14.42805 | 120.87420 | 2719 ft | 185 kts | 60° |
| 2026-04-30 12:35 | 14.43428 | 120.88552 | 2478 ft | 179 kts | 60° |
| 2026-04-30 12:35 | 14.44035 | 120.89654 | 2247 ft | 170 kts | 60° |
| 2026-04-30 12:35 | 14.44632 | 120.90732 | 2039 ft | 175 kts | 60° |
| 2026-04-30 12:35 | 14.45225 | 120.91801 | 1802 ft | 166 kts | 60° |
| 2026-04-30 12:36 | 14.45782 | 120.92806 | 1598 ft | 156 kts | 60° |
| 2026-04-30 12:36 | 14.46306 | 120.93754 | 1389 ft | 150 kts | 61° |
| 2026-04-30 12:36 | 14.46797 | 120.94681 | 1197 ft | 143 kts | 62° |
| 2026-04-30 12:36 | 14.47301 | 120.95560 | 1058 ft | 140 kts | 59° |
| 2026-04-30 12:37 | 14.47798 | 120.96420 | 913 ft | 140 kts | 59° |
| 2026-04-30 12:37 | 14.48288 | 120.97297 | 737 ft | 140 kts | 60° |
| 2026-04-30 12:37 | 14.48775 | 120.98171 | 553 ft | 140 kts | 62° |
| 2026-04-30 12:37 | 14.49255 | 120.99041 | 353 ft | 139 kts | 62° |
| 2026-04-30 12:38 | 14.49731 | 120.99910 | 183 ft | 138 kts | 62° |
| 2026-04-30 12:38 | 14.50200 | 121.00760 | 93 ft | 129 kts | 61° |
| 2026-04-30 12:38 | 14.50571 | 121.01434 | 90 ft | 81 kts | 60° |
| 2026-04-30 12:38 | 14.50770 | 121.01797 | 90 ft | 46 kts | 60° |
| 2026-04-30 12:39 | 14.50931 | 121.02080 | 90 ft | 44 kts | 60° |
| 2026-04-30 12:39 | 14.51066 | 121.02239 | 90 ft | 16 kts | 41° |
| 2026-04-30 12:39 | 14.51135 | 121.02299 | 90 ft | 7 kts | 33° |
| 2026-04-30 12:39 | 14.51185 | 121.02296 | 90 ft | 8 kts | 314° |
| 2026-04-30 12:40 | 14.51179 | 121.02237 | 90 ft | 9 kts | 241° |
| 2026-04-30 12:40 | 14.51144 | 121.02173 | 90 ft | 11 kts | 240° |
| 2026-04-30 12:40 | 14.51115 | 121.02120 | 90 ft | 7 kts | 240° |
| 2026-04-30 12:40 | 14.51101 | 121.02097 | 90 ft | 0 kts | 240° |
| 2026-04-30 12:41 | 14.51099 | 121.02093 | 90 ft | 2 kts | 240° |
| 2026-04-30 12:42 | 14.51084 | 121.02066 | 90 ft | 5 kts | 239° |
| 2026-04-30 12:42 | 14.51064 | 121.02026 | 90 ft | 6 kts | 255° |
| 2026-04-30 12:42 | 14.51075 | 121.01983 | 90 ft | 6 kts | 302° |
| 2026-04-30 12:42 | 14.51120 | 121.01933 | 90 ft | 7 kts | 315° |
| 2026-04-30 12:43 | 14.51146 | 121.01907 | 90 ft | 7 kts | 316° |
| 2026-04-30 12:43 | 14.51187 | 121.01866 | 90 ft | 8 kts | 315° |
| 2026-04-30 12:43 | 14.51230 | 121.01823 | 90 ft | 8 kts | 315° |
| 2026-04-30 12:43 | 14.51275 | 121.01778 | 90 ft | 9 kts | 314° |
| 2026-04-30 12:44 | 14.51321 | 121.01730 | 90 ft | 9 kts | 314° |
| 2026-04-30 12:44 | 14.51368 | 121.01680 | 90 ft | 9 kts | 314° |
| 2026-04-30 12:44 | 14.51417 | 121.01630 | 90 ft | 9 kts | 315° |
| 2026-04-30 12:44 | 14.51466 | 121.01579 | 90 ft | 10 kts | 314° |
| 2026-04-30 12:45 | 14.51516 | 121.01526 | 90 ft | 10 kts | 314° |
| 2026-04-30 12:45 | 14.51568 | 121.01472 | 90 ft | 10 kts | 315° |
| 2026-04-30 12:45 | 14.51619 | 121.01420 | 90 ft | 10 kts | 315° |
| 2026-04-30 12:45 | 14.51672 | 121.01365 | 90 ft | 10 kts | 314° |
| 2026-04-30 12:46 | 14.51723 | 121.01309 | 90 ft | 10 kts | 314° |
| 2026-04-30 12:46 | 14.51777 | 121.01255 | 90 ft | 10 kts | 316° |
| 2026-04-30 12:46 | 14.51832 | 121.01201 | 90 ft | 9 kts | 316° |
| 2026-04-30 12:46 | 14.51867 | 121.01170 | 90 ft | 4 kts | 338° |
| 2026-04-30 12:47 | 14.51896 | 121.01177 | 90 ft | 5 kts | 31° |
| 2026-04-30 12:47 | 14.51918 | 121.01199 | 90 ft | 3 kts | 49° |
| 2026-04-30 12:47 | 14.51934 | 121.01217 | 90 ft | 2 kts | 45° |
| 2026-04-30 12:47 | 14.51936 | 121.01218 | 90 ft | 0 kts | 45° |